Time;durP1;ratioP1;P1;durP2;ratioP2;P2;SDS_P1;SDS_P2;PMS_P1;PMS_P2;Temp;Humidity;BMP_temperature;BMP_pressure;BME280_temperature;BME280_humidity;BME280_pressure;Samples;Min_cycle;Max_cycle;Signal;HPM_P1;HPM_P2
2021/01/06 00:00:54;;;;;;;26.57;14.23;;;;;;;;;;4391479;32;20165;-80
2021/01/06 00:03:21;;;;;;;23.63;12.30;;;;;;;;;;4391300;32;20219;-80
2021/01/06 00:05:49;;;;;;;24.00;13.27;;;;;;;;;;4391974;32;20169;-80
2021/01/06 00:08:15;;;;;;;27.77;13.37;;;;;;;;;;4391551;32;20170;-80
2021/01/06 00:10:43;;;;;;;25.87;12.57;;;;;;;;;;4391286;32;20216;-80
2021/01/06 00:13:09;;;;;;;26.20;13.03;;;;;;;;;;4405238;32;20168;-80
2021/01/06 00:15:35;;;;;;;29.37;14.10;;;;;;;;;;4391083;32;20162;-80
2021/01/06 00:18:01;;;;;;;25.13;13.10;;;;;;;;;;4391218;32;20632;-80
2021/01/06 00:20:27;;;;;;;29.60;12.93;;;;;;;;;;4404762;32;20134;-80
2021/01/06 00:22:55;;;;;;;25.67;13.23;;;;;;;;;;4390983;32;20256;-81
2021/01/06 00:25:27;;;;;;;26.07;13.30;;;;;;;;;;4391465;32;20158;-80
2021/01/06 00:27:52;;;;;;;27.43;12.80;;;;;;;;;;4391128;32;20225;-80
2021/01/06 00:30:29;;;;;;;26.07;13.10;;;;;;;;;;4390834;32;20192;-81
2021/01/06 00:32:54;;;;;;;27.90;13.07;;;;;;;;;;4390873;32;20492;-80
2021/01/06 00:35:20;;;;;;;26.97;13.33;;;;;;;;;;4405031;32;20173;-80
2021/01/06 00:37:46;;;;;;;25.47;11.67;;;;;;;;;;4390663;32;20154;-80
2021/01/06 00:40:14;;;;;;;27.23;13.20;;;;;;;;;;4391545;32;20196;-81
2021/01/06 00:42:53;;;;;;;;;;;;;;;;;;;;;
2021/01/06 00:45:18;;;;;;;27.07;13.27;;;;;;;;;;4405224;32;20131;-81
2021/01/06 00:47:58;;;;;;;26.40;12.60;;;;;;;;;;4390928;32;20166;-80
2021/01/06 00:50:25;;;;;;;22.93;12.07;;;;;;;;;;4390942;32;20650;-80
2021/01/06 00:52:53;;;;;;;22.67;11.83;;;;;;;;;;4404972;32;20169;-80
2021/01/06 00:55:21;;;;;;;26.23;12.03;;;;;;;;;;4394018;32;20162;-81
2021/01/06 00:58:00;;;;;;;22.07;12.63;;;;;;;;;;4393599;32;20219;-80
2021/01/06 01:00:28;;;;;;;24.97;12.50;;;;;;;;;;4393504;32;20181;-79
2021/01/06 01:02:54;;;;;;;24.03;12.27;;;;;;;;;;4393564;32;20571;-80
2021/01/06 01:05:27;;;;;;;23.37;11.57;;;;;;;;;;4393522;32;20188;-80
2021/01/06 01:07:53;;;;;;;21.27;11.43;;;;;;;;;;4393024;32;20170;-80
2021/01/06 01:10:24;;;;;;;24.73;12.30;;;;;;;;;;4393802;32;20173;-80
2021/01/06 01:12:51;;;;;;;20.07;11.17;;;;;;;;;;4407250;32;20138;-81
2021/01/06 01:15:17;;;;;;;21.53;11.13;;;;;;;;;;4393268;32;20158;-80
2021/01/06 01:17:43;;;;;;;23.10;10.97;;;;;;;;;;4393351;32;20256;-80
2021/01/06 01:20:09;;;;;;;20.53;11.67;;;;;;;;;;4393391;32;20180;-80
2021/01/06 01:22:34;;;;;;;22.90;11.27;;;;;;;;;;4393626;32;20256;-80
2021/01/06 01:25:02;;;;;;;22.93;11.93;;;;;;;;;;4393508;32;20583;-80
2021/01/06 01:27:27;;;;;;;19.67;10.47;;;;;;;;;;4392962;32;20170;-80
2021/01/06 01:29:52;;;;;;;22.20;10.37;;;;;;;;;;4393079;32;20626;-80
2021/01/06 01:32:18;;;;;;;19.80;10.73;;;;;;;;;;4392730;32;20619;-80
2021/01/06 01:34:43;;;;;;;19.07;10.00;;;;;;;;;;4392921;32;20649;-80
2021/01/06 01:37:08;;;;;;;20.87;10.90;;;;;;;;;;4406913;32;20142;-80
2021/01/06 01:39:34;;;;;;;18.83;10.20;;;;;;;;;;4407399;32;20141;-80
2021/01/06 01:42:02;;;;;;;18.37;10.27;;;;;;;;;;4407166;32;20176;-80
2021/01/06 01:44:28;;;;;;;21.27;10.57;;;;;;;;;;4392841;32;20162;-80
2021/01/06 01:47:01;;;;;;;19.67;10.43;;;;;;;;;;4393201;32;20233;-80
2021/01/06 01:49:28;;;;;;;19.30;9.73;;;;;;;;;;4393171;32;20192;-80
2021/01/06 01:52:06;;;;;;;18.70;10.10;;;;;;;;;;4406487;32;20217;-80
2021/01/06 01:54:34;;;;;;;19.03;10.00;;;;;;;;;;4393059;32;20166;-80
2021/01/06 01:57:05;;;;;;;19.90;10.60;;;;;;;;;;4392561;32;20256;-80
2021/01/06 01:59:37;;;;;;;18.43;9.97;;;;;;;;;;4406683;32;20169;-80
2021/01/06 02:02:06;;;;;;;18.90;9.40;;;;;;;;;;4393151;32;20196;-80
2021/01/06 02:04:35;;;;;;;17.73;9.47;;;;;;;;;;4392717;32;20193;-80
2021/01/06 02:07:21;;;;;;;15.47;8.93;;;;;;;;;;4392544;32;20185;-81
2021/01/06 02:10:16;;;;;;;17.57;9.70;;;;;;;;;;4392814;32;20526;-81
2021/01/06 02:12:47;;;;;;;20.10;9.70;;;;;;;;;;4376352;32;20188;-80
2021/01/06 02:15:44;;;;;;;16.10;9.43;;;;;;;;;;4406404;32;20138;-80
2021/01/06 02:18:10;;;;;;;14.63;8.60;;;;;;;;;;4351318;32;20170;-80
2021/01/06 02:20:35;;;;;;;15.27;9.13;;;;;;;;;;4392336;32;20184;-80
2021/01/06 02:23:01;;;;;;;17.40;8.60;;;;;;;;;;4406596;32;20134;-80
2021/01/06 02:25:27;;;;;;;14.93;8.80;;;;;;;;;;4406230;32;20169;-80
2021/01/06 02:27:55;;;;;;;15.60;8.47;;;;;;;;;;4392346;32;20201;-80
2021/01/06 02:30:21;;;;;;;13.93;8.10;;;;;;;;;;4406674;32;20174;-80
2021/01/06 02:32:46;;;;;;;16.37;8.93;;;;;;;;;;4392301;32;20158;-80
2021/01/06 02:35:12;;;;;;;16.67;8.77;;;;;;;;;;4406399;32;20154;-80
2021/01/06 02:37:38;;;;;;;14.37;8.30;;;;;;;;;;4392255;32;20479;-80
2021/01/06 02:40:04;;;;;;;15.10;8.50;;;;;;;;;;4392526;32;20219;-80
2021/01/06 02:42:30;;;;;;;17.87;8.00;;;;;;;;;;4392324;32;20251;-80
2021/01/06 02:44:55;;;;;;;15.57;8.57;;;;;;;;;;4391855;32;20170;-80
2021/01/06 02:47:20;;;;;;;15.50;8.87;;;;;;;;;;4392052;32;20256;-81
2021/01/06 02:49:48;;;;;;;18.27;8.67;;;;;;;;;;4406537;32;20142;-80
2021/01/06 02:52:16;;;;;;;16.43;8.53;;;;;;;;;;4391760;32;20577;-80
2021/01/06 02:54:45;;;;;;;13.00;7.70;;;;;;;;;;4392476;32;20219;-80
2021/01/06 02:57:10;;;;;;;13.77;8.40;;;;;;;;;;4391715;32;20161;-80
2021/01/06 02:59:43;;;;;;;14.43;7.80;;;;;;;;;;4392382;32;20185;-80
2021/01/06 03:02:10;;;;;;;13.47;8.40;;;;;;;;;;4391647;32;20166;-81
2021/01/06 03:04:38;;;;;;;13.87;8.47;;;;;;;;;;4392133;32;20223;-80
2021/01/06 03:07:04;;;;;;;14.80;8.60;;;;;;;;;;4392011;32;20232;-80
2021/01/06 03:09:31;;;;;;;16.00;8.83;;;;;;;;;;4391976;32;20242;-80
2021/01/06 03:11:58;;;;;;;14.13;8.17;;;;;;;;;;4392071;32;20165;-80
2021/01/06 03:14:25;;;;;;;16.00;8.83;;;;;;;;;;4391555;32;20234;-80
2021/01/06 03:16:51;;;;;;;14.80;8.27;;;;;;;;;;4406458;32;20135;-81
2021/01/06 03:19:18;;;;;;;15.13;8.37;;;;;;;;;;4392367;32;20197;-80
2021/01/06 03:21:44;;;;;;;15.53;7.97;;;;;;;;;;4391907;32;20205;-80
2021/01/06 03:24:10;;;;;;;14.73;8.63;;;;;;;;;;4391575;32;20192;-80
2021/01/06 03:26:42;;;;;;;15.83;9.07;;;;;;;;;;4391704;32;20162;-81
2021/01/06 03:29:07;;;;;;;14.93;8.43;;;;;;;;;;4391592;32;20157;-80
2021/01/06 03:31:42;;;;;;;13.87;8.60;;;;;;;;;;4391741;32;20254;-81
2021/01/06 03:34:16;;;;;;;13.60;7.90;;;;;;;;;;4391246;32;20185;-80
2021/01/06 03:36:49;;;;;;;15.43;8.37;;;;;;;;;;4391614;32;20169;-81
2021/01/06 03:39:32;;;;;;;15.60;8.30;;;;;;;;;;4405831;32;20480;-80
2021/01/06 03:41:59;;;;;;;14.40;7.80;;;;;;;;;;4392005;32;20161;-80
2021/01/06 03:44:24;;;;;;;13.17;8.27;;;;;;;;;;4391252;32;20196;-80
2021/01/06 03:46:58;;;;;;;16.13;9.20;;;;;;;;;;4405619;32;20560;-80
2021/01/06 03:49:42;;;;;;;12.70;8.13;;;;;;;;;;4397288;32;20227;-81
2021/01/06 03:52:12;;;;;;;15.63;8.67;;;;;;;;;;4406299;32;20184;-80
2021/01/06 03:54:56;;;;;;;15.87;8.33;;;;;;;;;;4406379;32;20158;-80
2021/01/06 03:57:23;;;;;;;16.03;8.53;;;;;;;;;;4407147;32;20154;-80
2021/01/06 04:00:12;;;;;;;15.77;8.20;;;;;;;;;;4406146;32;20583;-80
2021/01/06 04:02:51;;;;;;;16.13;8.67;;;;;;;;;;4420779;32;20150;-80
2021/01/06 04:11:15;;;;;;;14.67;8.50;;;;;;;;;;4419699;32;20505;-81
2021/01/06 04:14:17;;;;;;;14.90;8.33;;;;;;;;;;4406989;32;20157;-80
2021/01/06 04:16:57;;;;;;;15.97;8.13;;;;;;;;;;4345732;33;20222;-80
2021/01/06 04:19:36;;;;;;;14.20;8.30;;;;;;;;;;4346014;33;20179;-80
2021/01/06 04:22:38;;;;;;;18.70;9.10;;;;;;;;;;4397487;32;20192;-80
2021/01/06 04:25:41;;;;;;;16.27;8.77;;;;;;;;;;4416916;32;20211;-80
2021/01/06 04:31:27;;;;;;;15.07;8.63;;;;;;;;;;4423011;32;20253;-80
2021/01/06 04:33:54;;;;;;;14.17;8.07;;;;;;;;;;4403924;32;20211;-81
2021/01/06 04:36:28;;;;;;;13.23;7.90;;;;;;;;;;4408921;32;20157;-80
2021/01/06 04:38:59;;;;;;;14.10;8.10;;;;;;;;;;4421627;32;20189;-80
2021/01/06 04:41:43;;;;;;;17.30;8.63;;;;;;;;;;4409010;32;20166;-80
2021/01/06 04:44:36;;;;;;;15.33;8.40;;;;;;;;;;4408758;32;20230;-80
2021/01/06 04:47:36;;;;;;;16.77;8.10;;;;;;;;;;4408836;32;20187;-80
2021/01/06 04:50:20;;;;;;;14.47;8.03;;;;;;;;;;4405917;32;20614;-80
2021/01/06 04:53:20;;;;;;;18.27;8.80;;;;;;;;;;4422729;32;20192;-80
2021/01/06 04:56:15;;;;;;;15.03;8.10;;;;;;;;;;4394410;32;20165;-80
2021/01/06 05:08:13;;;;;;;15.30;8.23;;;;;;;;;;4316205;33;20182;-80
2021/01/06 05:10:58;;;;;;;14.23;7.83;;;;;;;;;;4332033;32;20165;-81
2021/01/06 05:14:01;;;;;;;13.23;7.83;;;;;;;;;;4408546;32;20165;-80
2021/01/06 05:17:17;;;;;;;;;;;;;;;;;;;;;
2021/01/06 05:20:32;;;;;;;;;;;;;;;;;;;;;
2021/01/06 05:26:39;;;;;;;16.03;8.33;;;;;;;;;;4301441;33;20545;-80
2021/01/06 05:29:06;;;;;;;17.10;7.97;;;;;;;;;;4313015;33;20206;-80
2021/01/06 05:31:35;;;;;;;15.23;8.40;;;;;;;;;;4341305;33;20171;-80
2021/01/06 05:34:03;;;;;;;15.30;8.20;;;;;;;;;;4406369;32;20203;-80
2021/01/06 05:36:30;;;;;;;14.27;7.93;;;;;;;;;;4408077;32;20158;-81
2021/01/06 05:38:59;;;;;;;14.37;7.97;;;;;;;;;;4421850;32;20146;-81
2021/01/06 05:42:18;;;;;;;16.00;8.20;;;;;;;;;;4422094;32;20141;-80
2021/01/06 05:44:54;;;;;;;17.10;8.60;;;;;;;;;;4332270;33;20167;-81
2021/01/06 05:47:44;;;;;;;14.83;8.60;;;;;;;;;;4345264;33;20186;-80
2021/01/06 05:50:22;;;;;;;14.17;8.53;;;;;;;;;;4395562;32;20497;-80
2021/01/06 05:53:14;;;;;;;16.20;9.30;;;;;;;;;;4408364;32;20173;-81
2021/01/06 05:55:44;;;;;;;17.33;8.70;;;;;;;;;;4408155;32;20184;-80
2021/01/06 05:58:40;;;;;;;15.80;8.90;;;;;;;;;;4407869;32;20161;-80
2021/01/06 06:01:41;;;;;;;15.50;8.90;;;;;;;;;;4421593;32;20192;-80
2021/01/06 06:07:37;;;;;;;13.40;7.90;;;;;;;;;;4344701;33;20150;-80
2021/01/06 06:10:32;;;;;;;15.20;8.20;;;;;;;;;;4344480;33;20206;-80
2021/01/06 06:13:04;;;;;;;15.73;8.13;;;;;;;;;;4337690;33;20174;-79
2021/01/06 06:16:01;;;;;;;14.90;8.27;;;;;;;;;;4345177;33;20189;-79
2021/01/06 06:21:31;;;;;;;16.87;7.93;;;;;;;;;;4339679;33;20152;-79
2021/01/06 06:24:01;;;;;;;15.17;8.03;;;;;;;;;;4412261;32;20169;-79
2021/01/06 06:26:46;;;;;;;18.77;8.90;;;;;;;;;;4407412;32;20208;-79
2021/01/06 06:29:22;;;;;;;15.20;8.60;;;;;;;;;;4407324;32;20226;-79
2021/01/06 06:32:09;;;;;;;;;;;;;;;;;;;;;
2021/01/06 06:35:09;;;;;;;;;;;;;;;;;;;;;
2021/01/06 06:44:32;;;;;;;14.33;7.87;;;;;;;;;;4395411;32;20166;-79
2021/01/06 06:50:54;;;;;;;17.60;8.87;;;;;;;;;;4373986;32;20150;-80
2021/01/06 06:56:58;;;;;;;13.77;7.83;;;;;;;;;;4374023;32;20172;-80
2021/01/06 06:59:29;;;;;;;13.33;7.47;;;;;;;;;;4360453;32;20269;-79
2021/01/06 07:01:59;;;;;;;15.13;7.77;;;;;;;;;;4393886;32;20204;-82
2021/01/06 07:04:47;;;;;;;17.07;7.77;;;;;;;;;;4406659;32;20638;-82
2021/01/06 07:13:47;;;;;;;16.50;8.20;;;;;;;;;;4358421;32;20158;-79
2021/01/06 07:16:30;;;;;;;15.93;8.10;;;;;;;;;;4406306;32;20161;-79
2021/01/06 07:19:04;;;;;;;16.13;8.23;;;;;;;;;;4406666;32;20583;-78
2021/01/06 07:24:22;;;;;;;17.97;8.70;;;;;;;;;;4381672;32;20230;-79
2021/01/06 07:26:59;;;;;;;15.70;8.40;;;;;;;;;;4420944;32;20615;-79
2021/01/06 07:29:32;;;;;;;16.17;8.63;;;;;;;;;;4406879;32;20158;-78
2021/01/06 07:32:01;;;;;;;16.03;9.10;;;;;;;;;;4407165;32;20153;-81
2021/01/06 07:34:30;;;;;;;18.80;9.13;;;;;;;;;;4420109;32;20138;-81
2021/01/06 07:36:58;;;;;;;16.17;9.20;;;;;;;;;;4406894;32;20157;-80
2021/01/06 07:39:36;;;;;;;;;;;;;;;;;;;;;
2021/01/06 07:42:24;;;;;;;16.07;8.40;;;;;;;;;;4416346;32;20196;-79
2021/01/06 07:44:49;;;;;;;16.50;8.57;;;;;;;;;;4406566;32;20180;-79
2021/01/06 07:47:20;;;;;;;14.27;7.80;;;;;;;;;;4406402;32;20629;-80
2021/01/06 07:50:09;;;;;;;;;;;;;;;;;;;;;
2021/01/06 07:56:04;;;;;;;13.83;8.00;;;;;;;;;;4427126;32;20167;-79
2021/01/06 07:58:43;;;;;;;18.70;8.50;;;;;;;;;;4400948;32;20157;-79
2021/01/06 08:02:05;;;;;;;14.90;8.73;;;;;;;;;;4392480;32;20221;-79
2021/01/06 08:04:23;;;;;;;16.93;8.73;;;;;;;;;;4395336;32;20615;-79
2021/01/06 08:10:18;;;;;;;;;;;;;;;;;;;;;
2021/01/06 08:13:09;;;;;;;16.70;8.73;;;;;;;;;;4330310;33;20172;-80
2021/01/06 08:15:47;;;;;;;19.20;8.80;;;;;;;;;;4333618;32;20140;-79
2021/01/06 08:22:01;;;;;;;;;;;;;;;;;;;;;
2021/01/06 08:24:44;;;;;;;;;;;;;;;;;;;;;
2021/01/06 08:27:56;;;;;;;13.43;7.83;;;;;;;;;;4392518;32;20583;-79
2021/01/06 08:30:29;;;;;;;14.70;7.50;;;;;;;;;;4409294;32;20234;-79
2021/01/06 08:33:33;;;;;;;;;;;;;;;;;;;;;
2021/01/06 08:39:28;;;;;;;;;;;;;;;;;;;;;
2021/01/06 08:41:58;;;;;;;15.57;7.07;;;;;;;;;;4301388;33;20207;-79
2021/01/06 08:45:03;;;;;;;14.80;7.13;;;;;;;;;;4350670;33;20249;-79
2021/01/06 08:48:03;;;;;;;14.13;7.43;;;;;;;;;;4347407;33;20187;-79
2021/01/06 08:51:16;;;;;;;13.97;7.40;;;;;;;;;;4347400;33;20167;-79
2021/01/06 09:02:57;;;;;;;16.40;7.00;;;;;;;;;;4338494;33;20234;-79
2021/01/06 09:05:46;;;;;;;16.10;7.57;;;;;;;;;;4330053;33;20220;-79
2021/01/06 09:08:43;;;;;;;13.80;7.10;;;;;;;;;;4395671;32;20162;-79
2021/01/06 09:11:32;;;;;;;14.00;7.00;;;;;;;;;;4406776;32;20215;-79
2021/01/06 09:14:39;;;;;;;16.73;7.00;;;;;;;;;;4407134;32;20551;-79
2021/01/06 09:17:38;;;;;;;13.83;6.93;;;;;;;;;;4407204;32;20145;-83
2021/01/06 09:23:24;;;;;;;13.27;7.00;;;;;;;;;;4401824;32;20207;-80
2021/01/06 09:25:56;;;;;;;13.17;7.13;;;;;;;;;;4393243;32;20588;-80
2021/01/06 09:28:27;;;;;;;12.80;6.43;;;;;;;;;;4393257;32;20173;-80
2021/01/06 09:31:14;;;;;;;16.50;7.37;;;;;;;;;;4407125;32;20602;-81
2021/01/06 09:33:41;;;;;;;13.77;7.50;;;;;;;;;;4402295;32;20509;-80
2021/01/06 09:36:27;;;;;;;14.67;7.10;;;;;;;;;;4408081;32;20162;-81
2021/01/06 09:39:13;;;;;;;17.00;8.07;;;;;;;;;;4402298;32;20165;-81
2021/01/06 09:41:49;;;;;;;14.90;7.03;;;;;;;;;;4407638;32;20183;-80
2021/01/06 09:44:14;;;;;;;13.93;6.87;;;;;;;;;;4408779;32;20170;-81
2021/01/06 09:52:47;;;;;;;13.53;7.10;;;;;;;;;;4401780;32;20158;-80
2021/01/06 09:56:00;;;;;;;13.50;7.63;;;;;;;;;;4425923;32;20153;-81
2021/01/06 09:58:06;;;;;;;15.13;7.97;;;;;;;;;;4426210;32;20173;-82
2021/01/06 10:00:50;;;;;;;23.53;10.77;;;;;;;;;;4423146;32;20169;-79
2021/01/06 10:03:15;;;;;;;28.77;12.20;;;;;;;;;;4412400;32;20230;-80
2021/01/06 10:15:46;;;;;;;14.57;7.63;;;;;;;;;;4305420;33;20731;-81
2021/01/06 10:18:33;;;;;;;13.13;7.20;;;;;;;;;;4355315;33;20174;-81
2021/01/06 10:21:34;;;;;;;;;;;;;;;;;;;;;
2021/01/06 10:27:22;;;;;;;16.60;7.90;;;;;;;;;;4420072;32;20549;-81
2021/01/06 10:29:48;;;;;;;16.17;7.47;;;;;;;;;;4406556;32;20173;-80
2021/01/06 10:32:44;;;;;;;13.33;7.83;;;;;;;;;;4392321;32;20340;-80
2021/01/06 10:35:30;;;;;;;15.93;8.27;;;;;;;;;;4403851;32;20184;-80
2021/01/06 10:38:16;;;;;;;14.20;7.60;;;;;;;;;;4405850;32;20153;-80
2021/01/06 10:47:01;;;;;;;;;;;;;;;;;;;;;
2021/01/06 10:51:15;;;;;;;14.47;7.50;;;;;;;;;;4366290;32;20177;-80
2021/01/06 10:53:33;;;;;;;16.33;8.23;;;;;;;;;;4289081;33;20285;-79
2021/01/06 10:56:18;;;;;;;15.17;8.13;;;;;;;;;;4279730;33;20177;-80
2021/01/06 10:59:17;;;;;;;13.07;7.47;;;;;;;;;;4354618;32;20206;-80
2021/01/06 11:01:43;;;;;;;15.60;7.87;;;;;;;;;;4360575;32;20178;-80
2021/01/06 11:04:32;;;;;;;14.17;7.80;;;;;;;;;;4372825;32;20487;-79
2021/01/06 11:07:53;;;;;;;15.30;8.23;;;;;;;;;;4373027;32;20200;-81
2021/01/06 11:10:46;;;;;;;17.23;8.10;;;;;;;;;;4328562;33;20186;-81
2021/01/06 11:13:46;;;;;;;12.70;6.63;;;;;;;;;;4347212;32;20217;-81
2021/01/06 11:16:38;;;;;;;15.37;6.93;;;;;;;;;;4403280;32;20193;-81
2021/01/06 11:19:03;;;;;;;13.90;7.10;;;;;;;;;;4388633;32;20331;-81
2021/01/06 11:21:41;;;;;;;12.33;5.93;;;;;;;;;;4390827;32;20177;-81
2021/01/06 11:24:26;;;;;;;11.70;6.50;;;;;;;;;;4390669;32;20601;-81
2021/01/06 11:27:00;;;;;;;12.47;6.27;;;;;;;;;;4403676;32;20205;-81
2021/01/06 11:29:29;;;;;;;15.30;6.33;;;;;;;;;;4390141;32;20569;-80
2021/01/06 11:32:47;;;;;;;12.43;6.63;;;;;;;;;;4390612;32;20220;-81
2021/01/06 11:35:29;;;;;;;;;;;;;;;;;;;;;
2021/01/06 11:38:11;;;;;;;11.70;5.70;;;;;;;;;;4420410;32;20142;-81
2021/01/06 11:40:37;;;;;;;10.13;5.03;;;;;;;;;;4417118;32;20188;-77
2021/01/06 11:43:02;;;;;;;11.83;5.53;;;;;;;;;;4418651;32;20161;-78
2021/01/06 11:45:32;;;;;;;9.33;5.33;;;;;;;;;;4420747;32;20142;-79
2021/01/06 11:48:32;;;;;;;11.10;5.40;;;;;;;;;;4414699;32;20158;-79
2021/01/06 11:51:16;;;;;;;10.80;5.47;;;;;;;;;;4406228;32;20242;-79
2021/01/06 11:54:08;;;;;;;11.93;6.27;;;;;;;;;;4405972;32;20188;-78
2021/01/06 11:56:36;;;;;;;9.93;5.30;;;;;;;;;;4406099;32;20153;-76
2021/01/06 11:59:30;;;;;;;12.70;5.83;;;;;;;;;;4420382;32;20489;-79
2021/01/06 12:01:59;;;;;;;11.70;5.27;;;;;;;;;;4399716;32;20204;-79
2021/01/06 12:04:35;;;;;;;9.90;5.57;;;;;;;;;;4420652;32;20572;-79
2021/01/06 12:07:16;;;;;;;13.73;5.77;;;;;;;;;;4420682;32;20526;-79
2021/01/06 12:10:01;;;;;;;11.37;5.03;;;;;;;;;;4406172;32;20158;-79
2021/01/06 12:12:43;;;;;;;8.23;4.70;;;;;;;;;;4406139;32;20218;-79
2021/01/06 12:15:28;;;;;;;10.87;5.27;;;;;;;;;;4407032;32;20173;-79
2021/01/06 12:17:55;;;;;;;9.43;5.40;;;;;;;;;;4407302;32;20187;-79
2021/01/06 12:20:25;;;;;;;15.23;5.20;;;;;;;;;;4405888;32;20200;-79
2021/01/06 12:23:09;;;;;;;7.60;4.50;;;;;;;;;;4406488;32;20158;-79
2021/01/06 12:25:41;;;;;;;8.67;4.40;;;;;;;;;;4419568;32;20220;-78
2021/01/06 12:28:25;;;;;;;10.80;5.10;;;;;;;;;;4405624;32;20170;-79
2021/01/06 12:31:11;;;;;;;8.77;3.97;;;;;;;;;;4419683;32;20647;-79
2021/01/06 12:33:39;;;;;;;11.23;4.30;;;;;;;;;;4420178;32;20176;-79
2021/01/06 12:36:10;;;;;;;11.13;4.83;;;;;;;;;;4416755;32;20192;-79
2021/01/06 12:39:14;;;;;;;8.77;5.13;;;;;;;;;;4419387;32;20150;-79
2021/01/06 12:41:47;;;;;;;12.10;4.93;;;;;;;;;;4409006;32;20146;-78
2021/01/06 12:44:18;;;;;;;9.27;4.83;;;;;;;;;;4411768;32;20162;-78
2021/01/06 12:46:53;;;;;;;14.13;4.93;;;;;;;;;;4419162;32;20180;-79
2021/01/06 12:49:22;;;;;;;9.30;5.40;;;;;;;;;;4420394;32;20535;-77
2021/01/06 12:52:05;;;;;;;8.67;4.50;;;;;;;;;;4408288;32;20162;-79
2021/01/06 12:54:38;;;;;;;11.97;4.60;;;;;;;;;;4416526;32;20154;-78
2021/01/06 12:57:10;;;;;;;9.10;4.70;;;;;;;;;;4412405;32;20687;-79
2021/01/06 12:59:49;;;;;;;9.73;5.00;;;;;;;;;;4422396;32;20172;-79
2021/01/06 13:02:18;;;;;;;10.07;4.37;;;;;;;;;;4422148;32;20177;-79
2021/01/06 13:04:44;;;;;;;10.33;5.17;;;;;;;;;;4393095;32;20531;-78
2021/01/06 13:07:16;;;;;;;14.03;4.40;;;;;;;;;;4393450;32;20583;-78
2021/01/06 13:09:59;;;;;;;10.97;4.00;;;;;;;;;;4406544;32;20491;-79
2021/01/06 13:12:40;;;;;;;11.30;3.70;;;;;;;;;;4393356;32;20655;-80
2021/01/06 13:15:08;;;;;;;8.57;4.00;;;;;;;;;;4407374;32;20138;-80
2021/01/06 13:17:37;;;;;;;7.23;4.40;;;;;;;;;;4392902;32;20161;-79
2021/01/06 13:20:28;;;;;;;8.70;4.03;;;;;;;;;;4406664;32;20134;-80
2021/01/06 13:22:55;;;;;;;9.70;3.73;;;;;;;;;;4415673;32;20170;-79
2021/01/06 13:25:32;;;;;;;8.77;4.20;;;;;;;;;;4407857;32;20230;-78
2021/01/06 13:28:10;;;;;;;8.53;4.47;;;;;;;;;;4421923;32;20472;-78
2021/01/06 13:30:38;;;;;;;9.63;4.97;;;;;;;;;;4421579;32;20176;-78
2021/01/06 13:33:25;;;;;;;13.37;5.93;;;;;;;;;;4421183;32;20200;-78
2021/01/06 13:35:57;;;;;;;13.20;5.93;;;;;;;;;;4408096;32;20178;-79
2021/01/06 13:38:25;;;;;;;11.23;6.70;;;;;;;;;;4392042;32;20263;-79
2021/01/06 13:40:52;;;;;;;13.83;6.93;;;;;;;;;;4391994;32;20181;-79
2021/01/06 13:43:26;;;;;;;13.37;6.43;;;;;;;;;;4389754;32;20193;-80
2021/01/06 13:45:59;;;;;;;16.30;7.67;;;;;;;;;;4392571;32;20189;-79
2021/01/06 13:48:24;;;;;;;12.53;6.50;;;;;;;;;;4407090;32;20221;-79
2021/01/06 13:51:01;;;;;;;12.63;6.13;;;;;;;;;;4421810;32;20172;-79
2021/01/06 13:53:33;;;;;;;11.13;5.90;;;;;;;;;;4407433;32;20162;-79
2021/01/06 13:56:40;;;;;;;;;;;;;;;;;;;;;
2021/01/06 13:59:24;;;;;;;15.87;6.27;;;;;;;;;;4409017;32;20157;-79
2021/01/06 14:01:55;;;;;;;13.90;5.87;;;;;;;;;;4420898;32;20153;-79
2021/01/06 14:04:56;;;;;;;11.47;5.90;;;;;;;;;;4416509;32;20229;-78
2021/01/06 14:07:43;;;;;;;10.80;5.43;;;;;;;;;;4374926;32;20444;-78
2021/01/06 14:10:51;;;;;;;12.53;4.93;;;;;;;;;;4411051;32;20210;-78
2021/01/06 14:16:41;;;;;;;14.43;5.50;;;;;;;;;;4421364;32;20474;-78
2021/01/06 14:19:15;;;;;;;10.30;5.03;;;;;;;;;;4421825;32;20145;-78
2021/01/06 14:21:59;;;;;;;;;;;;;;;;;;;;;
2021/01/06 14:24:26;;;;;;;14.87;5.37;;;;;;;;;;4420872;32;20157;-80
2021/01/06 14:27:13;;;;;;;11.17;5.13;;;;;;;;;;4406988;32;20189;-79
2021/01/06 14:30:02;;;;;;;16.80;5.83;;;;;;;;;;4409133;32;20154;-79
2021/01/06 14:32:48;;;;;;;10.50;5.33;;;;;;;;;;4400903;32;20595;-79
2021/01/06 14:35:14;;;;;;;11.80;5.80;;;;;;;;;;4418531;32;20234;-79
2021/01/06 14:37:58;;;;;;;16.93;6.47;;;;;;;;;;4420891;32;20142;-79
2021/01/06 14:40:59;;;;;;;11.07;4.97;;;;;;;;;;4419724;32;20165;-79
2021/01/06 14:43:52;;;;;;;14.43;5.37;;;;;;;;;;4373350;32;20202;-79
2021/01/06 14:46:39;;;;;;;14.60;6.07;;;;;;;;;;4361601;32;20297;-79
2021/01/06 14:49:16;;;;;;;15.43;5.63;;;;;;;;;;4421683;32;20275;-79
2021/01/06 14:52:00;;;;;;;12.97;5.67;;;;;;;;;;4421212;32;20179;-80
2021/01/06 14:54:35;;;;;;;13.87;5.40;;;;;;;;;;4420613;32;20172;-79
2021/01/06 14:57:05;;;;;;;11.80;5.40;;;;;;;;;;4419403;32;20176;-79
2021/01/06 14:59:42;;;;;;;14.10;5.30;;;;;;;;;;4419473;32;20192;-79
2021/01/06 15:02:48;;;;;;;14.27;5.60;;;;;;;;;;4406931;32;20207;-79
2021/01/06 15:05:50;;;;;;;9.93;5.20;;;;;;;;;;4343670;33;20178;-78
2021/01/06 15:08:28;;;;;;;15.73;5.33;;;;;;;;;;4375773;32;20207;-81
2021/01/06 15:11:21;;;;;;;10.27;4.80;;;;;;;;;;4400420;32;20166;-79
2021/01/06 15:17:01;;;;;;;13.77;5.50;;;;;;;;;;4381458;32;20583;-79
2021/01/06 15:19:53;;;;;;;10.80;5.03;;;;;;;;;;4403567;32;20584;-79
2021/01/06 15:22:24;;;;;;;10.23;4.63;;;;;;;;;;4402981;32;20174;-79
2021/01/06 15:25:08;;;;;;;7.13;4.40;;;;;;;;;;4403845;32;20158;-79
2021/01/06 15:27:38;;;;;;;10.50;4.13;;;;;;;;;;4404162;32;20182;-78
2021/01/06 15:30:32;;;;;;;9.13;4.03;;;;;;;;;;4405286;32;20138;-78
2021/01/06 15:33:07;;;;;;;8.53;4.43;;;;;;;;;;4400426;32;20208;-80
2021/01/06 15:35:36;;;;;;;14.60;4.40;;;;;;;;;;4403440;32;20162;-78
2021/01/06 15:38:16;;;;;;;12.37;4.70;;;;;;;;;;4403290;32;20522;-78
2021/01/06 15:40:59;;;;;;;9.57;3.97;;;;;;;;;;4405453;32;20141;-78
2021/01/06 15:43:33;;;;;;;7.47;3.70;;;;;;;;;;4404961;32;20188;-78
2021/01/06 15:46:20;;;;;;;9.10;4.57;;;;;;;;;;4405206;32;20547;-78
2021/01/06 15:48:48;;;;;;;10.33;4.60;;;;;;;;;;4399004;32;20208;-78
2021/01/06 15:51:24;;;;;;;12.33;4.53;;;;;;;;;;4405012;32;20174;-78
2021/01/06 15:54:37;;;;;;;7.13;3.70;;;;;;;;;;4405199;32;20134;-78
2021/01/06 15:56:40;;;;;;;7.93;3.40;;;;;;;;;;4400738;32;22069;-77
2021/01/06 15:59:16;;;;;;;;;;;;;;;;;;;;;
2021/01/06 16:01:45;;;;;;;10.70;4.97;;;;;;;;;;4410670;32;20157;-78
2021/01/06 16:04:10;;;;;;;11.43;4.10;;;;;;;;;;4419819;32;20146;-79
2021/01/06 16:06:42;;;;;;;9.50;4.40;;;;;;;;;;4406366;32;20241;-79
2021/01/06 16:09:11;;;;;;;10.80;5.47;;;;;;;;;;4405647;32;20169;-79
2021/01/06 16:11:36;;;;;;;8.70;4.43;;;;;;;;;;4406547;32;20271;-79
2021/01/06 16:14:02;;;;;;;7.03;4.10;;;;;;;;;;4406439;32;20165;-80
2021/01/06 16:16:40;;;;;;;12.30;4.30;;;;;;;;;;4406272;32;20329;-80
2021/01/06 16:19:07;;;;;;;13.80;4.50;;;;;;;;;;4394978;32;20161;-80
2021/01/06 16:21:39;;;;;;;9.93;5.13;;;;;;;;;;4391142;32;20196;-80
2021/01/06 16:24:11;;;;;;;10.13;5.57;;;;;;;;;;4380601;32;20162;-80
2021/01/06 16:26:40;;;;;;;12.77;4.30;;;;;;;;;;4408025;32;20134;-79
2021/01/06 16:29:10;;;;;;;10.37;4.10;;;;;;;;;;4393941;32;20170;-79
2021/01/06 16:31:41;;;;;;;8.30;4.17;;;;;;;;;;4393974;32;20158;-79
2021/01/06 16:34:25;;;;;;;10.50;4.10;;;;;;;;;;4401880;32;20180;-79
2021/01/06 16:37:11;;;;;;;10.30;4.00;;;;;;;;;;4409745;32;20184;-79
2021/01/06 16:39:39;;;;;;;11.97;5.13;;;;;;;;;;4409505;32;20157;-80
2021/01/06 16:42:15;;;;;;;12.97;5.03;;;;;;;;;;4408954;32;20161;-79
2021/01/06 16:44:42;;;;;;;10.10;5.10;;;;;;;;;;4409015;32;20226;-79
2021/01/06 16:47:21;;;;;;;10.33;4.80;;;;;;;;;;4423111;32;20536;-79
2021/01/06 16:49:49;;;;;;;11.50;4.83;;;;;;;;;;4423539;32;20164;-80
2021/01/06 16:52:17;;;;;;;10.07;4.77;;;;;;;;;;4409031;32;20187;-80
2021/01/06 16:54:43;;;;;;;9.73;4.80;;;;;;;;;;4422157;32;20146;-78
2021/01/06 16:57:28;;;;;;;11.50;4.77;;;;;;;;;;4422403;32;20138;-79
2021/01/06 16:59:54;;;;;;;8.33;4.27;;;;;;;;;;4408854;32;20212;-79
2021/01/06 17:02:23;;;;;;;10.77;4.30;;;;;;;;;;4408360;32;20173;-78
2021/01/06 17:04:49;;;;;;;9.30;4.50;;;;;;;;;;4424674;32;20150;-78
2021/01/06 17:07:19;;;;;;;10.70;4.20;;;;;;;;;;4422152;32;20188;-78
2021/01/06 17:09:45;;;;;;;9.37;4.20;;;;;;;;;;4435935;32;20198;-78
2021/01/06 17:12:30;;;;;;;9.13;4.33;;;;;;;;;;4422393;32;20184;-78
2021/01/06 17:15:05;;;;;;;11.80;4.33;;;;;;;;;;4422538;32;20164;-78
2021/01/06 17:17:31;;;;;;;8.57;3.80;;;;;;;;;;4422358;32;20209;-78
2021/01/06 17:19:59;;;;;;;11.80;4.10;;;;;;;;;;4407965;32;20599;-78
2021/01/06 17:22:34;;;;;;;7.80;3.77;;;;;;;;;;4407373;32;20246;-78
2021/01/06 17:25:06;;;;;;;8.00;3.60;;;;;;;;;;4421575;32;20256;-78
2021/01/06 17:27:33;;;;;;;8.00;4.00;;;;;;;;;;4437448;32;20142;-78
2021/01/06 17:30:14;;;;;;;8.50;3.40;;;;;;;;;;4437399;32;20129;-79
2021/01/06 17:32:58;;;;;;;10.13;3.50;;;;;;;;;;4437127;32;20488;-79
2021/01/06 17:35:23;;;;;;;5.13;3.03;;;;;;;;;;4426976;32;20150;-79
2021/01/06 17:38:26;;;;;;;7.73;3.47;;;;;;;;;;4408213;32;20248;-79